createdAt,value
2022-10-09T00:01:19.481Z,99140.31
2022-10-09T00:03:47.937Z,99139.78
2022-10-09T00:06:17.220Z,99134.28
2022-10-09T00:08:44.331Z,99139.28
2022-10-09T00:11:16.517Z,99133.88
2022-10-09T00:13:43.423Z,99132.31
2022-10-09T00:16:12.807Z,99127.63
2022-10-09T00:18:39.858Z,99128.06
2022-10-09T00:21:14.191Z,99125.41
2022-10-09T00:23:41.031Z,99129.88
2022-10-09T00:26:08.545Z,99130.00
2022-10-09T00:28:38.484Z,99127.22
2022-10-09T00:31:09.585Z,99131.53
2022-10-09T00:33:37.187Z,99121.06
2022-10-09T00:36:10.384Z,99123.72
2022-10-09T00:38:36.904Z,99127.06
2022-10-09T00:41:03.609Z,99123.03
2022-10-09T00:43:52.287Z,99124.25
2022-10-09T00:46:25.664Z,99117.41
2022-10-09T00:49:02.991Z,99119.91
2022-10-09T00:51:30.381Z,99112.50
2022-10-09T00:53:57.219Z,99112.50
2022-10-09T00:56:24.961Z,99105.69
2022-10-09T00:58:53.919Z,99112.91
2022-10-09T01:01:21.091Z,99112.06
2022-10-09T01:03:47.822Z,99108.88
2022-10-09T01:06:23.013Z,99103.75
2022-10-09T01:09:08.713Z,99105.28
2022-10-09T01:11:57.317Z,99097.75
2022-10-09T01:14:29.662Z,99097.16
2022-10-09T01:17:08.371Z,99101.78
2022-10-09T01:19:44.981Z,99097.16
2022-10-09T01:22:29.908Z,99088.63
2022-10-09T01:25:11.670Z,99090.06
2022-10-09T01:27:38.809Z,99090.31
2022-10-09T01:30:08.568Z,99086.41
2022-10-09T01:32:38.230Z,99087.25
2022-10-09T01:35:06.382Z,99082.34
2022-10-09T01:37:34.231Z,99079.84
2022-10-09T01:40:01.143Z,99078.59
2022-10-09T01:42:29.030Z,99077.78
2022-10-09T01:44:55.721Z,99075.25
2022-10-09T01:47:22.826Z,99075.66
2022-10-09T01:50:01.899Z,99079.97
2022-10-09T01:52:31.977Z,99070.50
2022-10-09T01:55:01.440Z,99074.00
2022-10-09T01:57:46.674Z,99075.25
2022-10-09T02:00:14.149Z,99062.41
2022-10-09T02:02:42.251Z,99059.34
2022-10-09T02:05:15.693Z,99052.97
2022-10-09T02:07:42.425Z,99054.06
2022-10-09T02:10:09.975Z,99049.59
2022-10-09T02:12:44.380Z,99052.50
2022-10-09T02:15:11.549Z,99047.78
2022-10-09T02:17:44.219Z,99037.31
2022-10-09T02:20:15.698Z,99039.00
2022-10-09T02:22:42.435Z,99041.41
2022-10-09T02:25:09.595Z,99039.31
2022-10-09T02:27:36.341Z,99037.63
2022-10-09T02:30:04.779Z,99038.06
2022-10-09T02:32:31.396Z,99030.13
2022-10-09T02:34:58.036Z,99038.91
2022-10-09T02:37:24.678Z,99026.81
2022-10-09T02:39:51.426Z,99030.13
2022-10-09T02:42:18.238Z,99021.53
2022-10-09T02:44:44.944Z,99021.66
2022-10-09T02:47:11.649Z,99023.19
2022-10-09T02:49:38.296Z,99027.50
2022-10-09T02:52:05.624Z,99026.94
2022-10-09T02:54:32.354Z,99020.81
2022-10-09T02:56:59.021Z,99019.84
2022-10-09T02:59:26.261Z,99020.97
2022-10-09T03:01:53.018Z,99018.59
2022-10-09T03:04:19.790Z,99015.97
2022-10-09T03:06:46.450Z,99024.16
2022-10-09T03:09:13.076Z,99028.03
2022-10-09T03:11:39.763Z,99018.00
2022-10-09T03:14:06.496Z,99022.59
2022-10-09T03:16:33.192Z,99021.03
2022-10-09T03:19:00.215Z,99023.56
2022-10-09T03:21:28.297Z,99014.09
2022-10-09T03:23:55.532Z,99015.88
2022-10-09T03:26:24.779Z,99022.84
2022-10-09T03:28:52.647Z,99016.16
2022-10-09T03:31:50.567Z,99018.53
2022-10-09T03:34:07.772Z,99021.16
2022-10-09T03:36:34.515Z,99019.50
2022-10-09T03:39:01.161Z,99020.47
2022-10-09T03:41:27.844Z,99025.06
2022-10-09T03:43:54.823Z,99023.25
2022-10-09T03:46:22.000Z,99021.13
2022-10-09T03:48:48.733Z,99016.97
2022-10-09T03:51:15.400Z,99016.38
2022-10-09T03:53:42.034Z,99020.53
2022-10-09T03:56:08.775Z,99022.25
2022-10-09T03:58:35.376Z,99015.25
2022-10-09T04:01:02.037Z,99015.81
2022-10-09T04:03:29.044Z,99015.34
2022-10-09T04:05:55.686Z,99017.44
2022-10-09T04:08:22.497Z,99018.28
2022-10-09T04:10:49.253Z,99026.56
2022-10-09T04:13:15.952Z,99031.59
2022-10-09T04:15:50.129Z,99026.63
2022-10-09T04:18:16.979Z,99020.53
2022-10-09T04:20:54.045Z,99018.72
2022-10-09T04:23:21.706Z,99018.28
2022-10-09T04:25:48.860Z,99021.28
2022-10-09T04:28:15.528Z,99024.06
2022-10-09T04:30:42.205Z,99015.28
2022-10-09T04:33:12.771Z,99017.63
2022-10-09T04:35:46.779Z,99022.91
2022-10-09T04:38:13.347Z,99016.22
2022-10-09T04:40:40.028Z,99024.53
2022-10-09T04:43:06.871Z,99017.47
2022-10-09T04:45:33.809Z,99017.84
2022-10-09T04:48:00.534Z,99016.19
2022-10-09T04:50:27.225Z,99012.81
2022-10-09T04:52:59.642Z,99010.03
2022-10-09T04:55:26.388Z,99010.03
2022-10-09T04:57:53.021Z,99012.56
2022-10-09T05:00:19.764Z,99011.84
2022-10-09T05:02:46.818Z,99007.41
2022-10-09T05:05:13.995Z,99007.53
2022-10-09T05:07:41.031Z,99006.72
2022-10-09T05:10:08.558Z,99009.16
2022-10-09T05:12:35.408Z,99012.44
2022-10-09T05:15:02.133Z,99019.50
2022-10-09T05:17:28.916Z,99012.94
2022-10-09T05:19:55.605Z,99018.47
2022-10-09T05:22:22.563Z,99014.16
2022-10-09T05:24:49.327Z,99013.44
2022-10-09T05:27:16.005Z,99011.44
2022-10-09T05:29:43.288Z,99008.69
2022-10-09T05:32:10.062Z,99006.44
2022-10-09T05:34:36.739Z,99014.59
2022-10-09T05:37:03.485Z,99014.97
2022-10-09T05:39:30.208Z,99014.38
2022-10-09T05:41:56.904Z,99009.22
2022-10-09T05:44:24.163Z,99015.56
2022-10-09T05:46:50.827Z,99012.81
2022-10-09T05:49:17.567Z,99011.00
2022-10-09T05:51:44.291Z,99012.09
2022-10-09T05:54:15.678Z,99015.09
2022-10-09T05:56:43.638Z,99006.84
2022-10-09T05:59:14.881Z,99006.84
2022-10-09T06:01:43.761Z,99007.41
2022-10-09T06:04:16.176Z,99004.03
2022-10-09T06:06:43.718Z,99001.81
2022-10-09T06:09:12.331Z,99010.41
2022-10-09T06:11:40.552Z,99005.66
2022-10-09T06:14:09.659Z,99008.75
2022-10-09T06:16:38.456Z,99009.22
2022-10-09T06:19:07.599Z,99008.13
2022-10-09T06:21:40.625Z,99011.81
2022-10-09T06:24:07.428Z,99005.09
2022-10-09T06:26:34.775Z,99017.84
2022-10-09T06:29:02.361Z,99018.16
2022-10-09T06:31:31.494Z,99014.47
2022-10-09T06:34:03.250Z,99017.31
2022-10-09T06:36:32.160Z,99022.91
2022-10-09T06:38:59.987Z,99018.91
2022-10-09T06:41:28.289Z,99014.91
2022-10-09T06:44:16.559Z,99022.75
2022-10-09T06:46:44.880Z,99015.41
2022-10-09T06:49:17.673Z,99020.03
2022-10-09T06:51:48.112Z,99019.78
2022-10-09T06:54:16.756Z,99019.22
2022-10-09T06:56:47.260Z,99019.50
2022-10-09T06:59:14.323Z,99024.50
2022-10-09T07:01:41.033Z,99020.38
2022-10-09T07:04:12.819Z,99026.53
2022-10-09T07:06:44.787Z,99028.78
2022-10-09T07:09:13.457Z,99031.88
2022-10-09T07:11:43.361Z,99036.09
2022-10-09T07:14:11.548Z,99029.00
2022-10-09T07:16:41.477Z,99025.53
2022-10-09T07:19:11.192Z,99034.22
2022-10-09T07:21:40.048Z,99023.38
2022-10-09T07:24:07.477Z,99025.88
2022-10-09T07:26:35.982Z,99031.44
2022-10-09T07:29:02.736Z,99030.75
2022-10-09T07:31:29.386Z,99024.75
2022-10-09T07:33:57.159Z,99032.53
2022-10-09T07:36:23.989Z,99029.47
2022-10-09T07:38:54.570Z,99034.75
2022-10-09T07:41:22.498Z,99027.75
2022-10-09T07:43:49.539Z,99032.94
2022-10-09T07:46:18.768Z,99026.50
2022-10-09T07:48:46.228Z,99027.88
2022-10-09T07:51:17.402Z,99024.38
2022-10-09T07:53:44.933Z,99030.25
2022-10-09T07:56:15.948Z,99023.81
2022-10-09T07:58:43.325Z,99030.81
2022-10-09T08:01:10.525Z,99024.38
2022-10-09T08:03:37.355Z,99021.53
2022-10-09T08:06:04.704Z,99017.34
2022-10-09T08:08:31.316Z,99023.69
2022-10-09T08:10:57.965Z,99018.31
2022-10-09T08:13:24.711Z,99016.75
2022-10-09T08:15:51.625Z,99012.16
2022-10-09T08:18:18.265Z,99018.63
2022-10-09T08:20:45.224Z,99010.13
2022-10-09T08:23:11.872Z,99007.59
2022-10-09T08:25:39.159Z,99011.88
2022-10-09T08:28:05.817Z,99007.66
2022-10-09T08:30:32.620Z,99007.09
2022-10-09T08:32:59.253Z,98999.97
2022-10-09T08:35:26.832Z,98996.50
2022-10-09T08:37:53.560Z,98992.38
2022-10-09T08:40:29.614Z,98993.53
2022-10-09T08:43:07.228Z,99010.00
2022-10-09T08:45:35.198Z,99002.94
2022-10-09T08:48:06.556Z,98996.78
2022-10-09T08:50:36.162Z,99001.63
2022-10-09T08:53:14.033Z,98996.09
2022-10-09T08:55:58.714Z,98995.19
2022-10-09T08:58:29.758Z,98989.59
2022-10-09T09:01:01.996Z,98988.88
2022-10-09T09:03:57.023Z,98990.13
2022-10-09T09:06:57.057Z,98981.41
2022-10-09T09:09:35.711Z,98977.97
2022-10-09T09:12:16.186Z,98980.16
2022-10-09T09:15:05.563Z,98972.34
2022-10-09T09:18:01.315Z,98967.28
2022-10-09T09:20:37.154Z,98963.97
2022-10-09T09:23:09.369Z,98965.31
2022-10-09T09:25:37.968Z,98962.19
2022-10-09T09:28:18.245Z,98957.00
2022-10-09T09:30:49.233Z,98955.19
2022-10-09T09:33:23.201Z,98955.50
2022-10-09T09:35:55.899Z,98960.56
2022-10-09T09:38:23.083Z,98951.38
2022-10-09T09:40:51.210Z,98957.88
2022-10-09T09:43:21.314Z,98948.69
2022-10-09T09:45:49.228Z,98944.03
2022-10-09T09:48:37.674Z,98940.31
2022-10-09T09:51:26.703Z,98937.50
2022-10-09T09:54:17.029Z,98929.31
2022-10-09T09:59:40.138Z,98918.03
2022-10-09T10:02:06.807Z,98921.81
2022-10-09T10:04:33.512Z,98919.28
2022-10-09T10:07:00.239Z,98907.25
2022-10-09T10:09:27.243Z,98909.41
2022-10-09T10:11:59.453Z,98907.84
2022-10-09T10:14:27.093Z,98910.19
2022-10-09T10:16:55.909Z,98903.56
2022-10-09T10:19:25.232Z,98904.03
2022-10-09T10:22:03.464Z,98889.50
2022-10-09T10:24:45.061Z,98883.44
2022-10-09T10:27:21.890Z,98881.06
2022-10-09T10:29:49.788Z,98879.72
2022-10-09T10:32:39.209Z,98876.16
2022-10-09T10:35:11.009Z,98883.75
2022-10-09T10:37:49.886Z,98870.94
2022-10-09T10:40:31.795Z,98868.94
2022-10-09T10:43:10.658Z,98860.56
2022-10-09T10:45:43.160Z,98862.34
2022-10-09T10:48:10.653Z,98858.13
2022-10-09T10:50:53.738Z,98859.06
2022-10-09T10:53:23.815Z,98855.63
2022-10-09T10:55:55.846Z,98853.50
2022-10-09T10:58:40.871Z,98851.09
2022-10-09T11:01:32.680Z,98855.63
2022-10-09T11:04:23.686Z,98852.00
2022-10-09T11:07:14.659Z,98845.28
2022-10-09T11:09:58.656Z,98846.97
2022-10-09T11:12:48.126Z,98842.44
2022-10-09T11:15:38.618Z,98839.31
2022-10-09T11:18:21.856Z,98831.78
2022-10-09T11:20:54.486Z,98823.59
2022-10-09T11:23:39.657Z,98823.03
2022-10-09T11:26:31.119Z,98821.84
2022-10-09T11:29:18.065Z,98818.53
2022-10-09T11:31:55.555Z,98818.53
2022-10-09T11:34:30.628Z,98801.78
2022-10-09T11:36:59.029Z,98807.47
2022-10-09T11:39:27.314Z,98801.03
2022-10-09T11:41:55.009Z,98799.13
2022-10-09T11:44:52.029Z,98797.44
2022-10-09T11:47:25.231Z,98791.81
2022-10-09T11:50:31.064Z,98780.31
2022-10-09T11:52:58.864Z,98789.06
2022-10-09T11:55:27.975Z,98778.19
2022-10-09T11:57:55.119Z,98762.53
2022-10-09T12:00:34.263Z,98763.19
2022-10-09T12:03:03.720Z,98766.69
2022-10-09T12:05:45.548Z,98753.34
2022-10-09T12:08:32.448Z,98756.44
2022-10-09T12:11:15.288Z,98746.41
2022-10-09T12:13:45.078Z,98742.66
2022-10-09T12:16:49.913Z,98740.25
2022-10-09T12:19:19.641Z,98730.13
2022-10-09T12:22:08.165Z,98723.91
2022-10-09T12:24:40.730Z,98717.94
2022-10-09T12:27:07.302Z,98722.53
2022-10-09T12:29:40.927Z,98718.75
2022-10-09T12:32:18.785Z,98716.56
2022-10-09T12:34:50.474Z,98716.66
2022-10-09T12:37:22.484Z,98714.56
2022-10-09T12:39:49.813Z,98713.09
2022-10-09T12:42:22.064Z,98709.34
2022-10-09T12:44:50.285Z,98703.97
2022-10-09T12:47:28.356Z,98702.03
2022-10-09T12:50:16.105Z,98696.78
2022-10-09T12:52:56.756Z,98704.47
2022-10-09T12:55:42.657Z,98705.50
2022-10-09T12:58:16.909Z,98696.31
2022-10-09T13:00:43.924Z,98684.06
2022-10-09T13:03:23.566Z,98677.03
2022-10-09T13:05:50.604Z,98686.09
2022-10-09T13:08:24.601Z,98677.13
2022-10-09T13:10:51.971Z,98666.44
2022-10-09T13:13:26.233Z,98668.41
2022-10-09T13:16:01.450Z,98667.75
2022-10-09T13:18:28.212Z,98666.81
2022-10-09T13:21:04.859Z,98664.16
2022-10-09T13:23:33.691Z,98654.69
2022-10-09T13:26:03.568Z,98661.75
2022-10-09T13:28:30.718Z,98658.06
2022-10-09T13:31:06.324Z,98655.56
2022-10-09T13:33:32.971Z,98660.25
2022-10-09T13:35:59.595Z,98656.78
2022-10-09T13:38:26.278Z,98656.78
2022-10-09T13:40:52.999Z,98646.72
2022-10-09T13:43:26.125Z,98635.28
2022-10-09T13:45:53.715Z,98643.94
2022-10-09T13:48:20.332Z,98639.22
2022-10-09T13:50:47.024Z,98644.97
2022-10-09T13:53:13.953Z,98634.22
2022-10-09T13:55:40.667Z,98630.13
2022-10-09T13:58:07.361Z,98624.34
2022-10-09T14:00:34.262Z,98620.09
2022-10-09T14:03:00.906Z,98611.69
2022-10-09T14:05:27.620Z,98611.41
2022-10-09T14:07:54.744Z,98610.56
2022-10-09T14:10:23.893Z,98604.72
2022-10-09T14:12:51.788Z,98608.63
2022-10-09T14:15:18.826Z,98600.69
2022-10-09T14:17:45.581Z,98600.34
2022-10-09T14:20:12.651Z,98588.97
2022-10-09T14:22:39.313Z,98583.19
2022-10-09T14:25:06.399Z,98578.81
2022-10-09T14:30:19.589Z,98572.72
2022-10-09T14:32:46.427Z,98576.69
2022-10-09T14:35:16.966Z,98572.72
2022-10-09T14:37:45.915Z,98573.38
2022-10-09T14:40:12.786Z,98570.38
2022-10-09T14:42:39.979Z,98575.47
2022-10-09T14:45:07.696Z,98573.25
2022-10-09T14:47:34.346Z,98562.28
2022-10-09T14:50:01.200Z,98560.22
2022-10-09T14:52:27.932Z,98561.22
2022-10-09T14:54:54.575Z,98553.94
2022-10-09T14:57:22.014Z,98555.06
2022-10-09T14:59:48.706Z,98550.13
2022-10-09T15:02:16.367Z,98551.31
2022-10-09T15:04:43.065Z,98549.25
2022-10-09T15:07:09.795Z,98544.50
2022-10-09T15:09:36.436Z,98548.25
2022-10-09T15:12:03.121Z,98551.69
2022-10-09T15:14:29.732Z,98549.19
2022-10-09T15:16:56.324Z,98531.38
2022-10-09T15:19:23.024Z,98534.59
2022-10-09T15:21:49.656Z,98538.91
2022-10-09T15:24:16.266Z,98545.81
2022-10-09T15:26:42.875Z,98536.56
2022-10-09T15:29:09.567Z,98530.97
2022-10-09T15:31:38.745Z,98536.69
2022-10-09T15:34:06.439Z,98522.50
2022-10-09T15:36:38.095Z,98526.06
2022-10-09T15:39:07.287Z,98522.41
2022-10-09T15:41:36.905Z,98519.38
2022-10-09T15:44:06.190Z,98524.91
2022-10-09T15:46:32.953Z,98514.69
2022-10-09T15:48:59.747Z,98518.38
2022-10-09T15:51:26.685Z,98509.84
2022-10-09T15:53:53.369Z,98511.69
2022-10-09T15:56:22.860Z,98506.13
2022-10-09T15:58:50.709Z,98509.09
2022-10-09T16:01:18.053Z,98506.88
2022-10-09T16:03:45.130Z,98501.91
2022-10-09T16:06:15.496Z,98505.94
2022-10-09T16:08:42.387Z,98500.00
2022-10-09T16:11:11.768Z,98508.59
2022-10-09T16:13:40.748Z,98502.53
2022-10-09T16:16:09.643Z,98504.41
2022-10-09T16:18:36.505Z,98510.06
2022-10-09T16:21:07.650Z,98493.34
2022-10-09T16:23:34.833Z,98498.47
2022-10-09T16:26:04.948Z,98499.78
2022-10-09T16:28:32.720Z,98483.97
2022-10-09T16:31:02.520Z,98496.03
2022-10-09T16:33:29.180Z,98492.16
2022-10-09T16:36:06.738Z,98496.47
2022-10-09T16:38:33.458Z,98497.00
2022-10-09T16:41:02.469Z,98502.13
2022-10-09T16:43:29.443Z,98500.75
2022-10-09T16:45:56.061Z,98498.44
2022-10-09T16:48:22.798Z,98493.47
2022-10-09T16:50:49.751Z,98496.31
2022-10-09T16:53:16.568Z,98495.31
2022-10-09T16:55:43.244Z,98498.69
2022-10-09T16:58:09.889Z,98499.25
2022-10-09T17:00:36.656Z,98497.13
2022-10-09T17:03:03.929Z,98503.34
2022-10-09T17:05:30.609Z,98505.91
2022-10-09T17:07:57.381Z,98509.91
2022-10-09T17:10:26.898Z,98504.75
2022-10-09T17:12:53.513Z,98514.78
2022-10-09T17:15:20.157Z,98507.44
2022-10-09T17:17:47.184Z,98508.16
2022-10-09T17:20:13.986Z,98512.66
2022-10-09T17:22:40.606Z,98513.84
2022-10-09T17:25:07.570Z,98510.69
2022-10-09T17:27:34.174Z,98512.88
2022-10-09T17:30:00.803Z,98508.31
2022-10-09T17:32:27.469Z,98501.94
2022-10-09T17:34:54.129Z,98511.09
2022-10-09T17:37:20.841Z,98510.13
2022-10-09T17:39:51.875Z,98507.97
2022-10-09T17:42:18.938Z,98511.00
2022-10-09T17:44:45.583Z,98504.00
2022-10-09T17:47:12.259Z,98512.31
2022-10-09T17:49:38.842Z,98504.69
2022-10-09T17:52:05.511Z,98513.19
2022-10-09T17:54:32.186Z,98515.84
2022-10-09T17:57:00.356Z,98508.69
2022-10-09T17:59:27.386Z,98506.91
2022-10-09T18:01:53.945Z,98495.09
2022-10-09T18:04:20.632Z,98511.06
2022-10-09T18:06:47.255Z,98505.94
2022-10-09T18:09:13.995Z,98508.09
2022-10-09T18:11:40.719Z,98496.31
2022-10-09T18:14:07.585Z,98503.47
2022-10-09T18:16:37.847Z,98497.69
2022-10-09T18:19:12.285Z,98496.19
2022-10-09T18:21:43.687Z,98499.84
2022-10-09T18:24:10.827Z,98499.84
2022-10-09T18:26:37.551Z,98490.56
2022-10-09T18:29:05.467Z,98493.59
2022-10-09T18:31:32.327Z,98492.91
2022-10-09T18:33:59.566Z,98485.44
2022-10-09T18:36:31.369Z,98495.78
2022-10-09T18:39:04.494Z,98482.16
2022-10-09T18:41:31.310Z,98491.31
2022-10-09T18:44:00.084Z,98485.00
2022-10-09T18:46:27.621Z,98488.03
2022-10-09T18:48:54.912Z,98486.34
2022-10-09T18:51:23.856Z,98486.34
2022-10-09T18:53:53.095Z,98481.72
2022-10-09T18:56:21.107Z,98475.09
2022-10-09T18:58:49.627Z,98477.06
2022-10-09T19:01:16.311Z,98468.47
2022-10-09T19:03:46.049Z,98468.47
2022-10-09T19:06:15.916Z,98465.16
2022-10-09T19:08:43.688Z,98469.78
2022-10-09T19:11:10.443Z,98475.31
2022-10-09T19:13:37.132Z,98471.16
2022-10-09T19:16:05.705Z,98465.19
2022-10-09T19:18:34.620Z,98471.47
2022-10-09T19:21:01.863Z,98470.97
2022-10-09T19:23:28.687Z,98472.28
2022-10-09T19:25:57.111Z,98468.47
2022-10-09T19:28:25.778Z,98470.81
2022-10-09T19:30:52.762Z,98464.84
2022-10-09T19:33:19.543Z,98474.13
2022-10-09T19:35:50.440Z,98470.00
2022-10-09T19:38:17.778Z,98469.84
2022-10-09T19:40:45.296Z,98464.69
2022-10-09T19:43:12.972Z,98469.50
2022-10-09T19:45:39.724Z,98461.88
2022-10-09T19:48:06.855Z,98466.53
2022-10-09T19:50:33.685Z,98469.34
2022-10-09T19:53:03.299Z,98462.88
2022-10-09T19:55:33.342Z,98469.72
2022-10-09T19:58:00.627Z,98465.91
2022-10-09T20:00:28.340Z,98470.53
2022-10-09T20:02:55.055Z,98463.91
2022-10-09T20:05:23.041Z,98471.03
2022-10-09T20:07:50.220Z,98467.56
2022-10-09T20:10:17.070Z,98482.19
2022-10-09T20:12:43.764Z,98468.25
2022-10-09T20:15:10.668Z,98477.19
2022-10-09T20:17:37.400Z,98472.19
2022-10-09T20:20:05.311Z,98472.06
2022-10-09T20:22:32.143Z,98476.50
2022-10-09T20:24:58.882Z,98469.56
2022-10-09T20:27:25.574Z,98466.22
2022-10-09T20:29:53.053Z,98468.88
2022-10-09T20:32:19.807Z,98464.41
2022-10-09T20:34:46.479Z,98456.63
2022-10-09T20:37:13.167Z,98456.97
2022-10-09T20:39:39.840Z,98458.13
2022-10-09T20:42:06.628Z,98461.25
2022-10-09T20:44:33.367Z,98456.28
2022-10-09T20:47:00.017Z,98466.22
2022-10-09T20:49:26.943Z,98459.94
2022-10-09T20:51:53.772Z,98458.09
2022-10-09T20:54:21.826Z,98459.09
2022-10-09T20:56:48.824Z,98462.06
2022-10-09T20:59:16.484Z,98450.75
2022-10-09T21:01:43.101Z,98444.44
2022-10-09T21:04:11.228Z,98451.56
2022-10-09T21:06:38.259Z,98451.69
2022-10-09T21:09:05.174Z,98453.38
2022-10-09T21:11:34.511Z,98452.53
2022-10-09T21:14:02.279Z,98449.88
2022-10-09T21:16:29.077Z,98444.59
2022-10-09T21:18:58.150Z,98442.56
2022-10-09T21:21:25.525Z,98443.22
2022-10-09T21:23:53.627Z,98446.88
2022-10-09T21:26:21.391Z,98451.00
2022-10-09T21:28:48.403Z,98447.34
2022-10-09T21:31:20.360Z,98450.81
2022-10-09T21:33:47.617Z,98445.34
2022-10-09T21:36:56.251Z,98446.16
2022-10-09T21:39:28.903Z,98449.84
2022-10-09T21:41:55.545Z,98443.84
2022-10-09T21:44:22.240Z,98436.03
2022-10-09T21:46:48.921Z,98435.25
2022-10-09T21:49:21.403Z,98434.91
2022-10-09T21:51:48.172Z,98435.72
2022-10-09T21:54:15.472Z,98440.91
2022-10-09T21:56:42.153Z,98441.59
2022-10-09T21:59:09.037Z,98444.91
2022-10-09T22:01:35.994Z,98435.44
2022-10-09T22:04:02.747Z,98440.13
2022-10-09T22:06:29.411Z,98432.31
2022-10-09T22:08:56.082Z,98439.25
2022-10-09T22:11:22.744Z,98431.63
2022-10-09T22:13:49.995Z,98436.59
2022-10-09T22:16:16.713Z,98427.16
2022-10-09T22:18:43.534Z,98429.28
2022-10-09T22:21:13.066Z,98431.09
2022-10-09T22:23:39.810Z,98427.47
2022-10-09T22:26:10.153Z,98433.41
2022-10-09T22:28:36.912Z,98442.56
2022-10-09T22:31:07.803Z,98434.59
2022-10-09T22:33:35.843Z,98423.31
2022-10-09T22:36:13.759Z,98426.97
2022-10-09T22:38:41.160Z,98425.94
2022-10-09T22:41:09.098Z,98420.50
2022-10-09T22:43:36.293Z,98421.69
2022-10-09T22:46:11.014Z,98426.69
2022-10-09T22:48:38.199Z,98416.41
2022-10-09T22:51:06.443Z,98415.09
2022-10-09T22:53:33.984Z,98415.78
2022-10-09T22:56:00.785Z,98409.66
2022-10-09T22:58:27.490Z,98405.00
2022-10-09T23:00:54.129Z,98404.16
2022-10-09T23:03:20.908Z,98406.50
2022-10-09T23:05:47.576Z,98401.88
2022-10-09T23:08:14.256Z,98398.41
2022-10-09T23:10:41.087Z,98398.56
2022-10-09T23:13:07.890Z,98404.34
2022-10-09T23:15:36.210Z,98395.91
2022-10-09T23:18:04.556Z,98401.22
2022-10-09T23:20:32.091Z,98397.91
2022-10-09T23:22:58.815Z,98402.22
2022-10-09T23:25:25.575Z,98405.53
2022-10-09T23:27:52.237Z,98405.53
2022-10-09T23:30:18.852Z,98405.72
2022-10-09T23:32:45.546Z,98407.69
2022-10-09T23:35:12.258Z,98403.41
2022-10-09T23:37:39.072Z,98404.88
2022-10-09T23:40:06.119Z,98390.78
2022-10-09T23:42:32.827Z,98399.25
2022-10-09T23:44:59.516Z,98386.31
2022-10-09T23:47:26.174Z,98402.88
2022-10-09T23:49:52.904Z,98395.59
2022-10-09T23:52:19.649Z,98393.09
2022-10-09T23:54:46.344Z,98395.94
2022-10-09T23:57:13.019Z,98402.41
2022-10-09T23:59:39.626Z,98393.44
